Tempiute, Nevada
Current Conditions -  °F | °C
As of 9:58 PM on Saturday 20 Dec 2014 (Local Time) from KINS Reporting Station
Clear Clear  
Wind Chill: 35°   Ceiling: Unl
Heat Index: 41°   Visibility: 10mi
Dew Point: 36°   Wind: 8mph
Humidity: 85%   Direction: 250°WSW
Pressure: 30.16"   Gusts: NA
Location:  37.3772°N, 115.475°W
Report Text: KINS 210558Z AUTO 25007KT 10SM CLR 05/02 A3016 RMK AO2 SLP210 T00480024 10101 20043 50008
Loading
Personal Weather Stations






























Interactive Weather Map New forecast layout! Learn more

10-Day Weather Forecast

Advertisements
Track Severe Weather on mobile